Time;durP1;ratioP1;P1;durP2;ratioP2;P2;SDS_P1;SDS_P2;PMS_P1;PMS_P2;Temp;Humidity;BMP_temperature;BMP_pressure;BME280_temperature;BME280_humidity;BME280_pressure;Samples;Min_cycle;Max_cycle;Signal;HPM_P1;HPM_P2
2023/07/30 00:01:48;;;;;;;3.30;1.80;;;21.20;99.90;;;;;;4867963;29;20077;-80
2023/07/30 00:04:14;;;;;;;3.72;1.80;;;21.20;99.90;;;;;;4859401;29;20045;-81
2023/07/30 00:06:41;;;;;;;4.75;1.75;;;21.10;99.90;;;;;;4870711;29;20081;-80
2023/07/30 00:09:08;;;;;;;2.40;1.90;;;21.10;99.90;;;;;;4886492;29;20078;-81
2023/07/30 00:11:34;;;;;;;4.28;1.92;;;21.00;99.90;;;;;;4881309;29;20440;-80
2023/07/30 00:14:01;;;;;;;2.67;1.90;;;21.00;99.90;;;;;;4884091;29;20088;-80
2023/07/30 00:16:28;;;;;;;2.97;1.80;;;21.00;99.90;;;;;;4876979;29;20054;-81
2023/07/30 00:18:56;;;;;;;4.03;1.92;;;20.90;99.90;;;;;;4869783;29;20058;-80
2023/07/30 00:21:23;;;;;;;4.93;1.80;;;20.90;99.90;;;;;;4887520;29;20054;-80
2023/07/30 00:23:49;;;;;;;1.88;1.52;;;20.90;99.90;;;;;;4895934;29;20057;-81
2023/07/30 00:26:16;;;;;;;4.38;1.98;;;20.80;99.90;;;;;;4890928;29;20104;-81
2023/07/30 00:28:43;;;;;;;4.18;1.83;;;20.80;99.90;;;;;;4875398;29;20049;-80
2023/07/30 00:31:09;;;;;;;2.63;1.60;;;20.80;99.90;;;;;;4877936;29;20057;-80
2023/07/30 00:33:36;;;;;;;1.50;1.40;;;20.80;99.90;;;;;;4862359;29;20061;-80
2023/07/30 00:36:03;;;;;;;3.55;2.47;;;20.80;99.90;;;;;;4865189;29;20057;-80
2023/07/30 00:38:30;;;;;;;2.00;1.80;;;20.70;99.90;;;;;;4867962;29;20508;-80
2023/07/30 00:40:56;;;;;;;3.17;1.70;;;20.70;99.90;;;;;;4879826;29;20050;-80
2023/07/30 00:43:23;;;;;;;2.20;1.90;;;20.70;99.90;;;;;;4859515;29;20050;-79
2023/07/30 00:45:50;;;;;;;6.25;2.08;;;20.70;99.90;;;;;;4884323;29;20097;-80
2023/07/30 00:48:17;;;;;;;3.30;1.80;;;20.70;99.90;;;;;;4863145;29;20101;-80
2023/07/30 00:50:44;;;;;;;3.88;2.13;;;20.70;99.90;;;;;;4864763;29;20048;-79
2023/07/30 00:53:14;;;;;;;5.38;1.98;;;20.80;99.90;;;;;;4886399;29;20305;-80
2023/07/30 00:55:41;;;;;;;2.85;2.00;;;20.70;99.90;;;;;;4870630;29;20053;-80
2023/07/30 00:58:10;;;;;;;3.55;2.15;;;20.80;99.90;;;;;;4881545;29;20057;-81
2023/07/30 01:00:36;;;;;;;1.92;1.52;;;20.80;99.90;;;;;;4875518;29;20564;-80
2023/07/30 01:03:04;;;;;;;2.35;1.73;;;20.80;99.90;;;;;;4882510;29;20049;-80
2023/07/30 01:05:31;;;;;;;2.50;1.80;;;20.70;99.90;;;;;;4868034;29;20049;-80
2023/07/30 01:07:57;;;;;;;2.33;1.80;;;20.70;99.90;;;;;;4876492;29;20053;-81
2023/07/30 01:10:25;;;;;;;3.38;1.77;;;20.70;99.90;;;;;;4868112;29;20106;-80
2023/07/30 01:12:52;;;;;;;1.65;1.40;;;20.70;99.90;;;;;;4868338;29;20063;-81
2023/07/30 01:15:19;;;;;;;4.40;1.73;;;20.60;99.90;;;;;;4889042;29;20088;-81
2023/07/30 01:17:46;;;;;;;3.47;1.98;;;20.60;99.90;;;;;;4872435;29;20136;-80
2023/07/30 01:20:13;;;;;;;2.03;1.83;;;20.60;99.90;;;;;;4865244;29;20113;-80
2023/07/30 01:22:40;;;;;;;3.95;1.85;;;20.60;99.90;;;;;;4878337;29;20096;-80
2023/07/30 01:25:07;;;;;;;3.30;1.65;;;20.50;99.90;;;;;;4873135;29;20088;-80
2023/07/30 01:27:41;;;;;;;5.05;1.92;;;20.50;99.90;;;;;;4863612;29;20110;-80
2023/07/30 01:30:25;;;;;;;2.33;1.48;;;20.40;99.90;;;;;;4872723;29;20084;-80
2023/07/30 01:32:52;;;;;;;5.45;2.13;;;20.40;99.90;;;;;;4869879;29;20089;-80
2023/07/30 01:35:27;;;;;;;2.30;1.50;;;20.40;99.90;;;;;;4864895;29;20061;-80
2023/07/30 01:37:54;;;;;;;2.15;1.80;;;20.40;99.90;;;;;;4878199;29;20104;-80
2023/07/30 01:40:21;;;;;;;2.15;1.58;;;20.40;99.90;;;;;;4869845;29;20049;-80
2023/07/30 01:42:50;;;;;;;3.75;1.63;;;20.40;99.90;;;;;;4862486;29;20140;-80
2023/07/30 01:45:16;;;;;;;3.28;1.70;;;20.30;99.90;;;;;;4887611;29;20132;-80
2023/07/30 01:47:43;;;;;;;2.58;1.95;;;20.30;99.90;;;;;;4870884;29;20041;-80
2023/07/30 01:50:10;;;;;;;4.38;2.13;;;20.30;99.90;;;;;;4878849;29;20505;-80
2023/07/30 01:52:37;;;;;;;3.28;1.95;;;20.30;99.90;;;;;;4876675;29;20109;-80
2023/07/30 01:55:04;;;;;;;3.05;2.00;;;20.20;99.90;;;;;;4869407;29;20052;-80
2023/07/30 01:57:30;;;;;;;5.85;2.13;;;20.20;99.90;;;;;;4861283;29;20478;-80
2023/07/30 01:59:57;;;;;;;3.22;1.42;;;20.20;99.90;;;;;;4873316;29;20105;-80
2023/07/30 02:02:24;;;;;;;1.90;1.60;;;20.20;99.90;;;;;;4869457;29;20195;-80
2023/07/30 02:04:51;;;;;;;3.40;2.00;;;20.20;99.90;;;;;;4864407;29;20057;-80
2023/07/30 02:07:18;;;;;;;2.50;1.70;;;20.20;99.90;;;;;;4868449;29;20573;-80
2023/07/30 02:09:44;;;;;;;3.65;1.73;;;20.20;99.90;;;;;;4864894;29;20064;-80
2023/07/30 02:12:11;;;;;;;2.88;1.95;;;20.20;99.90;;;;;;4877650;29;20543;-80
2023/07/30 02:14:38;;;;;;;2.75;1.70;;;20.10;99.90;;;;;;4877588;29;20049;-81
2023/07/30 02:17:05;;;;;;;6.03;1.90;;;20.20;99.90;;;;;;4872331;29;20113;-80
2023/07/30 02:19:31;;;;;;;2.58;1.65;;;20.10;99.90;;;;;;4867122;29;20080;-80
2023/07/30 02:21:58;;;;;;;2.95;1.60;;;20.10;99.90;;;;;;4869967;29;20045;-80
2023/07/30 02:24:25;;;;;;;1.85;1.60;;;20.10;99.90;;;;;;4869674;29;20092;-80
2023/07/30 02:26:51;;;;;;;2.42;1.65;;;20.10;99.90;;;;;;4866713;29;20045;-80
2023/07/30 02:29:18;;;;;;;4.40;1.55;;;20.10;99.90;;;;;;4867464;29;20084;-79
2023/07/30 02:31:45;;;;;;;2.35;1.45;;;20.10;99.90;;;;;;4874168;29;20082;-79
2023/07/30 02:34:11;;;;;;;2.42;1.40;;;20.10;99.90;;;;;;4867995;29;20049;-79
2023/07/30 02:36:38;;;;;;;1.80;1.50;;;20.00;99.90;;;;;;4865837;29;20050;-80
2023/07/30 02:39:05;;;;;;;2.08;1.73;;;20.10;99.90;;;;;;4872115;29;20085;-80
2023/07/30 02:41:31;;;;;;;4.05;1.60;;;20.00;99.90;;;;;;4878660;29;20106;-80
2023/07/30 02:43:58;;;;;;;2.53;1.60;;;20.00;99.90;;;;;;4880353;29;20097;-80
2023/07/30 02:46:25;;;;;;;2.67;1.52;;;20.00;99.90;;;;;;4876816;29;20571;-81
2023/07/30 02:48:52;;;;;;;3.22;1.92;;;20.00;99.90;;;;;;4883154;29;20050;-81
2023/07/30 02:51:18;;;;;;;1.92;1.77;;;20.00;99.90;;;;;;4866507;29;20111;-81
2023/07/30 02:53:45;;;;;;;1.70;1.60;;;20.00;99.90;;;;;;4870302;29;20048;-80
2023/07/30 02:56:12;;;;;;;1.63;1.52;;;20.00;99.90;;;;;;4868693;29;20076;-80
2023/07/30 02:58:38;;;;;;;3.08;1.45;;;20.00;99.90;;;;;;4879902;29;20052;-80
2023/07/30 03:01:07;;;;;;;5.05;1.83;;;19.90;99.90;;;;;;4875829;29;20076;-80
2023/07/30 03:03:34;;;;;;;2.30;1.45;;;19.90;99.90;;;;;;4871286;29;20080;-81
2023/07/30 03:06:00;;;;;;;2.17;1.60;;;19.90;99.90;;;;;;4862353;29;20046;-81
2023/07/30 03:08:27;;;;;;;2.25;1.80;;;19.90;99.90;;;;;;4873656;29;20049;-80
2023/07/30 03:10:56;;;;;;;2.67;1.48;;;19.90;99.90;;;;;;4870715;29;20540;-81
2023/07/30 03:13:23;;;;;;;3.53;2.00;;;19.90;99.90;;;;;;4879141;29;20092;-81
2023/07/30 03:15:50;;;;;;;3.35;1.88;;;19.90;99.90;;;;;;4893181;29;20077;-80
2023/07/30 03:18:17;;;;;;;4.63;1.85;;;19.90;99.90;;;;;;4873958;29;20064;-81
2023/07/30 03:20:43;;;;;;;3.40;2.17;;;19.80;99.90;;;;;;4878052;29;20054;-81
2023/07/30 03:23:10;;;;;;;1.60;1.50;;;19.80;99.90;;;;;;4888063;29;20147;-81
2023/07/30 03:25:37;;;;;;;3.53;1.58;;;19.80;99.90;;;;;;4869677;29;20391;-81
2023/07/30 03:28:04;;;;;;;1.77;1.48;;;19.80;99.90;;;;;;4866342;29;20049;-81
2023/07/30 03:30:30;;;;;;;2.97;1.48;;;19.80;99.90;;;;;;4872376;29;20154;-80
2023/07/30 03:32:57;;;;;;;3.10;1.70;;;19.80;99.90;;;;;;4874376;29;20041;-81
2023/07/30 03:35:24;;;;;;;1.38;1.27;;;19.80;99.90;;;;;;4880704;29;20499;-81
2023/07/30 03:37:51;;;;;;;4.78;1.75;;;19.70;99.90;;;;;;4873006;29;20049;-81
2023/07/30 03:40:18;;;;;;;2.25;1.60;;;19.70;99.90;;;;;;4887892;29;20045;-81
2023/07/30 03:42:44;;;;;;;2.22;1.98;;;19.70;99.90;;;;;;4874236;29;20073;-80
2023/07/30 03:45:11;;;;;;;2.22;1.75;;;19.70;99.90;;;;;;4893292;29;20052;-81
2023/07/30 03:47:38;;;;;;;4.28;1.38;;;19.60;99.90;;;;;;4875581;29;20056;-81
2023/07/30 03:50:05;;;;;;;2.47;1.45;;;19.70;99.90;;;;;;4879078;29;20052;-80
2023/07/30 03:52:32;;;;;;;1.90;1.35;;;19.60;99.90;;;;;;4888828;29;20555;-80
2023/07/30 03:54:58;;;;;;;1.33;1.20;;;19.60;99.90;;;;;;4890240;29;20524;-80
2023/07/30 03:57:25;;;;;;;3.47;1.33;;;19.60;99.90;;;;;;4864382;29;20081;-80
2023/07/30 03:59:52;;;;;;;4.18;1.65;;;19.60;99.90;;;;;;4867097;29;20049;-81
2023/07/30 04:02:18;;;;;;;2.00;1.40;;;19.60;99.90;;;;;;4887565;29;20101;-81
2023/07/30 04:04:46;;;;;;;2.53;1.60;;;19.70;99.90;;;;;;4867145;29;20080;-80
2023/07/30 04:07:12;;;;;;;1.85;1.33;;;19.70;99.90;;;;;;4863309;29;20040;-80
2023/07/30 04:09:39;;;;;;;3.53;1.50;;;19.70;99.90;;;;;;4873638;29;20045;-80
2023/07/30 04:12:06;;;;;;;1.52;1.20;;;19.70;99.90;;;;;;4866600;29;20367;-80
2023/07/30 04:14:33;;;;;;;1.90;1.17;;;19.70;99.90;;;;;;4879607;29;20053;-80
2023/07/30 04:17:00;;;;;;;2.40;1.27;;;19.80;99.90;;;;;;4872856;29;20504;-80
2023/07/30 04:19:27;;;;;;;2.65;1.17;;;19.80;99.90;;;;;;4881418;29;20113;-80
2023/07/30 04:21:54;;;;;;;1.10;1.00;;;19.80;99.90;;;;;;4863047;29;20092;-80
2023/07/30 04:24:20;;;;;;;2.35;1.40;;;19.80;99.90;;;;;;4872539;29;20104;-80
2023/07/30 04:26:47;;;;;;;1.85;1.50;;;19.80;99.90;;;;;;4859947;29;20073;-81
2023/07/30 04:29:15;;;;;;;3.88;1.65;;;19.90;99.90;;;;;;4877782;29;20125;-81
2023/07/30 04:31:41;;;;;;;1.70;1.45;;;19.90;99.90;;;;;;4886364;29;20049;-81
2023/07/30 04:34:08;;;;;;;1.80;1.23;;;19.90;99.90;;;;;;4884298;29;20050;-81
2023/07/30 04:36:35;;;;;;;1.75;1.40;;;19.90;99.90;;;;;;4876179;29;20092;-81
2023/07/30 04:39:01;;;;;;;1.95;1.45;;;19.90;99.90;;;;;;4876219;29;20049;-80
2023/07/30 04:41:28;;;;;;;1.95;1.30;;;20.00;99.90;;;;;;4869897;29;20058;-81
2023/07/30 04:43:55;;;;;;;3.08;1.45;;;20.00;99.90;;;;;;4878658;29;20041;-80
2023/07/30 04:46:22;;;;;;;1.40;1.30;;;20.00;99.90;;;;;;4883561;29;20045;-80
2023/07/30 04:48:49;;;;;;;2.38;1.20;;;20.10;99.90;;;;;;4869706;29;20057;-82
2023/07/30 04:51:16;;;;;;;2.35;1.23;;;20.10;99.90;;;;;;4861531;29;20122;-80
2023/07/30 04:53:42;;;;;;;2.15;1.20;;;20.10;99.90;;;;;;4875211;29;20053;-80
2023/07/30 04:56:09;;;;;;;1.63;1.15;;;20.20;99.90;;;;;;4868290;29;20074;-80
2023/07/30 04:58:36;;;;;;;2.38;1.30;;;20.20;99.90;;;;;;4867066;29;20082;-80
2023/07/30 05:01:02;;;;;;;1.50;1.20;;;20.20;99.90;;;;;;4868966;29;20065;-80
2023/07/30 05:03:29;;;;;;;2.85;1.20;;;20.20;99.90;;;;;;4871118;29;20481;-80
2023/07/30 05:05:56;;;;;;;2.40;1.10;;;20.20;99.90;;;;;;4878084;29;20073;-80
2023/07/30 05:08:22;;;;;;;1.45;0.90;;;20.20;99.90;;;;;;4866386;29;20049;-80
2023/07/30 05:10:49;;;;;;;1.80;1.02;;;20.30;99.90;;;;;;4886281;29;20076;-80
2023/07/30 05:13:16;;;;;;;1.73;1.20;;;20.30;99.90;;;;;;4869520;29;20069;-80
2023/07/30 05:15:43;;;;;;;2.28;1.13;;;20.30;99.90;;;;;;4866751;29;20077;-80
2023/07/30 05:18:10;;;;;;;1.40;1.30;;;20.30;99.90;;;;;;4871700;29;20235;-81
2023/07/30 05:20:36;;;;;;;2.58;1.40;;;20.40;99.90;;;;;;4864081;29;20566;-80
2023/07/30 05:23:03;;;;;;;2.00;1.35;;;20.40;99.90;;;;;;4865562;29;20049;-80
2023/07/30 05:25:30;;;;;;;1.10;1.00;;;20.50;99.90;;;;;;4887826;29;20090;-80
2023/07/30 05:27:56;;;;;;;1.33;1.02;;;20.60;99.90;;;;;;4881586;29;20049;-80
2023/07/30 05:30:23;;;;;;;1.40;1.20;;;20.60;99.90;;;;;;4862862;29;20049;-80
2023/07/30 05:32:50;;;;;;;1.42;1.00;;;20.60;99.90;;;;;;4861503;29;20057;-80
2023/07/30 05:35:18;;;;;;;1.90;1.25;;;20.60;99.90;;;;;;4881019;29;20058;-80
2023/07/30 05:37:45;;;;;;;2.20;1.30;;;20.70;99.90;;;;;;4863802;29;20105;-80
2023/07/30 05:40:12;;;;;;;1.73;1.00;;;20.70;99.90;;;;;;4874292;29;20085;-80
2023/07/30 05:42:39;;;;;;;1.55;1.10;;;20.70;99.90;;;;;;4870286;29;20057;-80
2023/07/30 05:45:06;;;;;;;1.38;1.10;;;20.70;99.90;;;;;;4879211;29;20067;-80
2023/07/30 05:47:33;;;;;;;3.13;1.33;;;20.80;99.90;;;;;;4872232;29;20049;-80
2023/07/30 05:49:59;;;;;;;1.98;1.13;;;20.80;99.90;;;;;;4870236;29;20073;-79
2023/07/30 05:52:26;;;;;;;2.47;1.25;;;20.90;99.90;;;;;;4879351;29;20110;-80
2023/07/30 05:54:53;;;;;;;0.80;0.80;;;21.00;99.90;;;;;;4879896;29;20049;-81
2023/07/30 05:57:19;;;;;;;1.60;1.13;;;21.00;99.90;;;;;;4873244;29;20053;-80
2023/07/30 05:59:46;;;;;;;2.90;1.27;;;21.00;99.90;;;;;;4857721;29;20075;-80
2023/07/30 06:02:13;;;;;;;2.83;1.05;;;21.10;99.90;;;;;;4892228;29;20056;-80
2023/07/30 06:04:40;;;;;;;2.33;1.13;;;21.10;99.90;;;;;;4871104;29;20472;-81
2023/07/30 06:07:07;;;;;;;2.95;1.10;;;21.10;99.90;;;;;;4881069;29;20106;-81
2023/07/30 06:09:33;;;;;;;1.70;1.17;;;21.10;99.90;;;;;;4893462;29;20103;-81
2023/07/30 06:12:00;;;;;;;3.20;1.40;;;21.10;99.90;;;;;;4872452;29;20098;-81
2023/07/30 06:14:27;;;;;;;1.58;0.90;;;21.10;99.90;;;;;;4879462;29;20053;-80
2023/07/30 06:16:54;;;;;;;1.63;1.20;;;21.10;99.90;;;;;;4877963;29;20565;-81
2023/07/30 06:19:21;;;;;;;4.88;1.20;;;21.10;99.90;;;;;;4888346;29;20049;-79
2023/07/30 06:21:48;;;;;;;3.38;1.70;;;21.10;99.90;;;;;;4868183;29;20084;-81
2023/07/30 06:24:15;;;;;;;1.35;1.23;;;21.10;99.90;;;;;;4872470;29;20101;-81
2023/07/30 06:26:41;;;;;;;1.27;1.17;;;21.10;99.90;;;;;;4871768;29;20078;-81
2023/07/30 06:29:08;;;;;;;4.55;1.52;;;21.20;99.90;;;;;;4864928;29;20049;-81
2023/07/30 06:31:35;;;;;;;1.45;1.20;;;21.20;99.90;;;;;;4869102;29;20053;-81
2023/07/30 06:34:02;;;;;;;3.45;1.20;;;21.30;99.90;;;;;;4891740;29;20108;-81
2023/07/30 06:36:29;;;;;;;2.38;1.20;;;21.30;99.90;;;;;;4870027;29;20117;-81
2023/07/30 06:38:55;;;;;;;1.38;1.08;;;21.30;99.90;;;;;;4887710;29;20061;-81
2023/07/30 06:41:22;;;;;;;2.53;1.30;;;21.30;99.90;;;;;;4873552;29;20057;-81
2023/07/30 06:43:49;;;;;;;2.53;1.52;;;21.30;99.90;;;;;;4863259;29;20050;-81
2023/07/30 06:46:16;;;;;;;2.05;1.20;;;21.30;99.90;;;;;;4887171;29;20060;-80
2023/07/30 06:48:43;;;;;;;3.20;1.30;;;21.30;99.90;;;;;;4875463;29;20041;-80
2023/07/30 06:51:10;;;;;;;2.38;1.40;;;21.30;99.90;;;;;;4871792;29;20052;-81
2023/07/30 06:53:37;;;;;;;3.20;1.10;;;21.30;99.90;;;;;;4871073;29;20092;-81
2023/07/30 06:56:04;;;;;;;2.53;1.30;;;21.40;99.90;;;;;;4874763;29;20049;-81
2023/07/30 06:58:31;;;;;;;1.35;1.00;;;21.40;99.90;;;;;;4886418;29;20064;-81
2023/07/30 07:00:58;;;;;;;1.42;1.20;;;21.40;99.90;;;;;;4881292;29;20042;-81
2023/07/30 07:03:24;;;;;;;1.40;1.20;;;21.50;99.90;;;;;;4877960;29;20057;-81
2023/07/30 07:05:55;;;;;;;2.47;1.20;;;21.70;99.90;;;;;;4881366;29;20067;-82
2023/07/30 07:08:23;;;;;;;1.20;1.10;;;21.70;99.90;;;;;;4872685;29;20068;-81
2023/07/30 07:10:50;;;;;;;1.88;1.10;;;21.80;99.90;;;;;;4879833;29;20053;-80
2023/07/30 07:13:16;;;;;;;1.75;1.20;;;21.90;99.90;;;;;;4880620;29;20050;-81
2023/07/30 07:15:44;;;;;;;1.83;1.15;;;21.90;99.90;;;;;;4868785;29;20090;-81
2023/07/30 07:18:11;;;;;;;3.13;1.00;;;21.90;99.90;;;;;;4898100;29;20122;-80
2023/07/30 07:20:38;;;;;;;1.40;1.30;;;22.00;99.90;;;;;;4892731;29;20061;-80
2023/07/30 07:23:04;;;;;;;2.85;1.33;;;22.00;99.90;;;;;;4884219;29;20090;-81
2023/07/30 07:25:31;;;;;;;2.72;1.10;;;22.10;99.90;;;;;;4887321;29;20096;-81
2023/07/30 07:27:58;;;;;;;1.95;1.13;;;22.10;99.90;;;;;;4868112;29;20045;-80
2023/07/30 07:30:24;;;;;;;2.42;1.40;;;22.10;99.90;;;;;;4877922;29;20084;-81
2023/07/30 07:32:52;;;;;;;2.42;1.25;;;22.20;99.90;;;;;;4877086;29;20073;-81
2023/07/30 07:35:20;;;;;;;1.30;1.20;;;22.20;99.90;;;;;;4868580;29;20076;-81
2023/07/30 07:37:47;;;;;;;1.77;1.23;;;22.20;99.90;;;;;;4866163;29;20046;-80
2023/07/30 07:40:14;;;;;;;2.00;1.30;;;22.20;99.90;;;;;;4860937;29;20050;-80
2023/07/30 07:42:40;;;;;;;1.25;1.00;;;22.20;99.90;;;;;;4864566;29;20057;-81
2023/07/30 07:45:08;;;;;;;1.80;1.10;;;22.30;99.90;;;;;;4865035;29;20045;-80
2023/07/30 07:47:35;;;;;;;2.83;0.98;;;22.40;99.90;;;;;;4876535;29;20059;-81
2023/07/30 07:50:01;;;;;;;1.45;0.90;;;22.50;99.90;;;;;;4888132;29;20046;-81
2023/07/30 07:52:28;;;;;;;2.08;1.08;;;22.50;99.90;;;;;;4880013;29;20193;-81
2023/07/30 07:54:55;;;;;;;1.45;1.10;;;22.60;99.90;;;;;;4869814;29;20501;-80
2023/07/30 07:57:22;;;;;;;1.73;1.13;;;22.70;99.90;;;;;;4874523;29;20085;-84
2023/07/30 07:59:49;;;;;;;1.20;1.10;;;22.80;99.90;;;;;;4864960;29;20083;-81
2023/07/30 08:02:15;;;;;;;1.80;1.20;;;22.90;99.90;;;;;;4892845;29;20053;-81
2023/07/30 08:04:42;;;;;;;2.70;1.10;;;23.00;99.90;;;;;;4871609;29;20549;-81
2023/07/30 08:07:09;;;;;;;2.20;1.10;;;23.00;99.90;;;;;;4885892;29;20084;-81
2023/07/30 08:09:36;;;;;;;2.85;1.13;;;23.10;99.90;;;;;;4867513;29;20056;-81
2023/07/30 08:12:03;;;;;;;2.28;1.15;;;23.10;99.90;;;;;;4873190;29;20049;-81
2023/07/30 08:14:31;;;;;;;1.17;1.02;;;23.10;99.90;;;;;;4867321;29;20481;-81
2023/07/30 08:16:57;;;;;;;1.88;1.30;;;23.10;99.90;;;;;;4878590;29;20045;-81
2023/07/30 08:19:24;;;;;;;3.42;2.00;;;23.20;99.90;;;;;;4874320;29;20053;-81
2023/07/30 08:21:51;;;;;;;2.33;1.20;;;23.20;99.90;;;;;;4879556;29;20079;-81
2023/07/30 08:24:17;;;;;;;2.92;1.20;;;23.20;99.90;;;;;;4866263;29;20061;-81
2023/07/30 08:26:46;;;;;;;1.48;1.38;;;23.30;99.90;;;;;;4870233;29;20101;-81
2023/07/30 08:29:13;;;;;;;1.88;1.17;;;23.20;99.90;;;;;;4879906;29;20401;-81
2023/07/30 08:31:41;;;;;;;1.50;1.10;;;23.20;99.90;;;;;;4878410;29;20057;-82
2023/07/30 08:34:08;;;;;;;2.75;1.17;;;23.20;99.90;;;;;;4873853;29;20057;-81
2023/07/30 08:36:35;;;;;;;3.58;1.40;;;23.20;99.90;;;;;;4883651;29;20057;-81
2023/07/30 08:39:03;;;;;;;1.98;1.20;;;23.20;99.90;;;;;;4879267;29;20049;-81
2023/07/30 08:41:31;;;;;;;2.30;1.23;;;23.10;99.90;;;;;;4878990;29;20057;-80
2023/07/30 08:43:58;;;;;;;1.40;1.10;;;23.10;99.90;;;;;;4878318;29;20053;-80
2023/07/30 08:46:25;;;;;;;2.45;1.10;;;23.10;99.90;;;;;;4866151;29;20049;-80
2023/07/30 08:48:51;;;;;;;2.17;1.27;;;23.10;99.90;;;;;;4887410;29;20517;-80
2023/07/30 08:51:19;;;;;;;1.63;1.20;;;23.20;99.90;;;;;;4883596;29;20057;-80
2023/07/30 08:53:47;;;;;;;2.80;1.10;;;23.20;99.90;;;;;;4860585;29;20053;-81
2023/07/30 08:56:14;;;;;;;2.08;1.10;;;23.30;99.90;;;;;;4890211;29;20158;-81
2023/07/30 08:58:43;;;;;;;4.00;1.13;;;23.30;99.90;;;;;;4868323;29;20132;-80
2023/07/30 09:01:12;;;;;;;1.23;1.10;;;23.30;99.90;;;;;;4875771;29;20744;-80
2023/07/30 09:03:40;;;;;;;1.83;1.05;;;23.40;99.90;;;;;;4869739;29;20057;-80
2023/07/30 09:06:07;;;;;;;2.35;1.10;;;23.30;99.90;;;;;;4869794;29;20049;-80
2023/07/30 09:08:34;;;;;;;1.88;1.25;;;23.30;99.90;;;;;;4860501;29;20054;-80
2023/07/30 09:11:11;;;;;;;3.55;1.00;;;23.30;99.90;;;;;;4871035;29;20080;-79
2023/07/30 09:13:39;;;;;;;2.50;1.10;;;23.20;99.90;;;;;;4865658;29;20417;-80
2023/07/30 09:16:13;;;;;;;4.10;1.13;;;23.10;99.90;;;;;;4867553;29;20053;-80
2023/07/30 09:18:44;;;;;;;1.52;1.20;;;23.00;99.90;;;;;;4889047;29;20060;-80
2023/07/30 09:21:14;;;;;;;1.70;1.20;;;23.00;99.90;;;;;;4889441;29;20481;-81
2023/07/30 09:23:45;;;;;;;2.47;1.27;;;22.90;99.90;;;;;;4869088;29;20050;-81
2023/07/30 09:26:13;;;;;;;4.97;1.13;;;22.80;99.90;;;;;;4885129;29;20078;-81
2023/07/30 09:28:40;;;;;;;2.22;1.30;;;22.80;99.90;;;;;;4884239;29;20053;-80
2023/07/30 09:31:07;;;;;;;2.83;1.10;;;22.80;99.90;;;;;;4872120;29;20045;-80
2023/07/30 09:33:48;;;;;;;1.80;1.10;;;22.80;99.90;;;;;;4872595;29;20051;-80
2023/07/30 09:36:18;;;;;;;1.95;1.00;;;22.90;99.90;;;;;;4870813;29;20111;-80
2023/07/30 09:38:46;;;;;;;1.77;1.23;;;22.90;99.90;;;;;;4879522;29;20055;-81
2023/07/30 09:41:14;;;;;;;1.98;1.30;;;23.00;99.90;;;;;;4879091;29;20049;-80
2023/07/30 09:43:41;;;;;;;2.08;1.30;;;23.00;99.90;;;;;;4873085;29;20585;-80
2023/07/30 09:46:08;;;;;;;3.58;1.17;;;23.10;99.90;;;;;;4877744;29;20050;-80
2023/07/30 09:48:35;;;;;;;2.97;1.30;;;23.00;99.90;;;;;;4873019;29;20045;-80
2023/07/30 09:51:04;;;;;;;3.97;1.30;;;23.00;99.90;;;;;;4879800;29;20411;-80
2023/07/30 09:53:34;;;;;;;5.10;1.40;;;23.20;99.90;;;;;;4864853;29;20577;-81
2023/07/30 09:56:08;;;;;;;2.95;1.35;;;23.20;99.90;;;;;;4873042;29;20052;-80
2023/07/30 09:58:37;;;;;;;1.23;1.10;;;23.20;99.90;;;;;;4869783;29;20057;-81
2023/07/30 10:01:05;;;;;;;2.00;1.20;;;23.30;99.90;;;;;;4863328;29;20426;-81
2023/07/30 10:03:34;;;;;;;2.15;1.10;;;23.40;99.90;;;;;;4873411;29;20139;-81
2023/07/30 10:06:07;;;;;;;2.20;1.20;;;23.40;99.90;;;;;;4873911;29;20046;-81
2023/07/30 10:08:39;;;;;;;2.35;1.33;;;23.30;99.90;;;;;;4866709;29;20057;-80
2023/07/30 10:11:08;;;;;;;2.45;1.55;;;23.30;99.90;;;;;;4873520;29;20083;-80
2023/07/30 10:13:36;;;;;;;1.10;1.00;;;23.30;99.90;;;;;;4869407;29;20076;-82
2023/07/30 10:16:03;;;;;;;3.00;1.17;;;23.30;99.90;;;;;;4864932;29;20053;-81
2023/07/30 10:18:38;;;;;;;1.52;1.13;;;23.30;99.90;;;;;;4875537;29;20156;-81
2023/07/30 10:21:08;;;;;;;1.88;1.00;;;23.30;99.90;;;;;;4873684;29;20050;-82
2023/07/30 10:23:35;;;;;;;1.00;0.90;;;23.40;99.90;;;;;;4882860;29;20061;-82
2023/07/30 10:26:11;;;;;;;2.08;1.10;;;23.40;99.90;;;;;;4872411;29;20041;-82
2023/07/30 10:28:43;;;;;;;2.97;1.25;;;23.40;99.90;;;;;;4883734;29;20513;-82
2023/07/30 10:31:13;;;;;;;2.80;1.20;;;23.40;99.90;;;;;;4864597;29;20080;-81
2023/07/30 10:34:07;;;;;;;1.92;1.50;;;23.40;99.90;;;;;;4874937;29;20049;-82
2023/07/30 10:36:41;;;;;;;2.97;1.30;;;23.40;99.90;;;;;;4879539;29;20062;-81
2023/07/30 10:39:16;;;;;;;1.90;1.38;;;23.40;99.90;;;;;;4865189;29;21275;-82
2023/07/30 10:41:44;;;;;;;1.75;1.45;;;23.40;99.90;;;;;;4887616;29;20053;-81
2023/07/30 10:44:22;;;;;;;2.40;1.20;;;23.30;99.90;;;;;;4880951;29;20532;-80
2023/07/30 10:46:49;;;;;;;1.88;1.30;;;23.30;99.90;;;;;;4866554;29;20049;-83
2023/07/30 10:49:16;;;;;;;3.08;1.50;;;23.30;99.90;;;;;;4904347;29;20057;-81
2023/07/30 10:51:42;;;;;;;1.33;1.00;;;23.30;99.90;;;;;;4883427;29;20079;-80
2023/07/30 10:54:09;;;;;;;2.97;1.20;;;23.20;99.90;;;;;;4873605;29;20101;-81
2023/07/30 10:56:37;;;;;;;3.03;1.10;;;23.20;99.90;;;;;;4883996;29;20075;-81
2023/07/30 10:59:08;;;;;;;2.53;1.58;;;23.30;99.90;;;;;;4869333;29;20053;-81
2023/07/30 11:01:39;;;;;;;2.20;1.25;;;23.10;99.90;;;;;;4867171;29;20096;-81
2023/07/30 11:04:18;;;;;;;2.40;1.25;;;23.20;99.90;;;;;;4871885;29;20065;-81
2023/07/30 11:06:50;;;;;;;2.88;1.27;;;23.20;99.90;;;;;;4869775;29;20073;-81
2023/07/30 11:09:21;;;;;;;2.17;1.58;;;23.20;99.90;;;;;;4866461;29;20049;-82
2023/07/30 11:11:49;;;;;;;3.00;1.27;;;23.30;99.90;;;;;;4871375;29;20105;-81
2023/07/30 11:14:20;;;;;;;2.92;1.65;;;23.30;99.90;;;;;;4878332;29;20053;-82
2023/07/30 11:16:51;;;;;;;5.13;1.40;;;23.30;99.90;;;;;;4878796;29;20057;-82
2023/07/30 11:19:18;;;;;;;1.92;1.20;;;23.30;99.90;;;;;;4861015;29;20064;-81
2023/07/30 11:21:49;;;;;;;3.42;1.40;;;23.40;99.90;;;;;;4873928;29;20053;-82
2023/07/30 11:24:20;;;;;;;3.97;1.50;;;23.40;99.90;;;;;;4865040;29;20091;-81
2023/07/30 11:27:00;;;;;;;2.40;0.95;;;23.50;99.90;;;;;;4886943;29;20049;-81
2023/07/30 11:29:27;;;;;;;3.60;1.45;;;23.50;99.90;;;;;;4871025;29;20057;-82
2023/07/30 11:31:59;;;;;;;3.75;1.40;;;23.50;99.90;;;;;;4876758;29;20049;-81
2023/07/30 11:34:27;;;;;;;2.47;1.20;;;23.60;99.90;;;;;;4880613;29;20097;-81
2023/07/30 11:36:55;;;;;;;2.28;1.20;;;23.60;99.90;;;;;;4885070;29;20050;-82
2023/07/30 11:39:23;;;;;;;5.40;1.60;;;23.60;99.90;;;;;;4876468;29;20053;-81
2023/07/30 11:41:50;;;;;;;2.85;1.15;;;23.70;99.90;;;;;;4879634;29;20060;-81
2023/07/30 11:44:31;;;;;;;1.70;1.08;;;23.80;99.90;;;;;;4875703;29;20425;-80
2023/07/30 11:46:57;;;;;;;5.50;1.27;;;23.80;99.90;;;;;;4866446;29;20082;-80
2023/07/30 11:49:24;;;;;;;2.25;1.45;;;23.90;99.90;;;;;;4889328;29;20049;-81
2023/07/30 11:52:03;;;;;;;3.85;1.77;;;24.00;99.90;;;;;;4867570;29;20097;-80
2023/07/30 11:54:31;;;;;;;2.05;1.30;;;24.00;99.90;;;;;;4868665;29;20125;-80
2023/07/30 11:56:58;;;;;;;4.45;1.50;;;24.10;99.90;;;;;;4871906;29;20082;-81
2023/07/30 11:59:25;;;;;;;2.38;1.10;;;24.20;99.90;;;;;;4870392;29;20049;-81
2023/07/30 12:01:51;;;;;;;4.32;1.25;;;24.30;99.90;;;;;;4872525;29;20049;-81
2023/07/30 12:04:18;;;;;;;1.77;1.25;;;24.30;99.90;;;;;;4872695;29;20088;-81
2023/07/30 12:06:51;;;;;;;4.45;1.55;;;24.40;99.90;;;;;;4869095;29;20073;-81
2023/07/30 12:09:21;;;;;;;4.20;1.40;;;24.50;99.90;;;;;;4871898;29;20049;-81
2023/07/30 12:11:59;;;;;;;3.65;1.40;;;24.70;99.90;;;;;;4879069;29;20052;-80
2023/07/30 12:14:48;;;;;;;1.75;1.20;;;24.60;99.90;;;;;;4875141;29;20081;-79
2023/07/30 12:17:15;;;;;;;3.95;2.47;;;24.60;99.90;;;;;;4882878;29;20061;-79
2023/07/30 12:19:42;;;;;;;3.67;1.60;;;24.50;99.90;;;;;;4880119;29;20106;-82
2023/07/30 12:22:08;;;;;;;3.38;1.50;;;24.60;99.90;;;;;;4867570;29;20520;-80
2023/07/30 12:24:35;;;;;;;2.00;1.40;;;24.50;99.90;;;;;;4864876;29;20050;-80
2023/07/30 12:27:02;;;;;;;3.10;1.40;;;24.40;99.90;;;;;;4867746;29;20097;-79
2023/07/30 12:29:29;;;;;;;2.63;1.50;;;24.30;99.90;;;;;;4869484;29;20053;-81
2023/07/30 12:31:56;;;;;;;2.00;1.40;;;24.20;99.90;;;;;;4869590;29;20066;-83
2023/07/30 12:34:24;;;;;;;2.88;1.48;;;24.20;99.90;;;;;;4881170;29;20095;-81
2023/07/30 12:36:51;;;;;;;2.13;1.15;;;24.10;99.90;;;;;;4875158;29;20089;-82
2023/07/30 12:39:17;;;;;;;3.50;1.60;;;24.10;99.90;;;;;;4860070;29;20083;-81
2023/07/30 12:41:44;;;;;;;2.35;1.50;;;24.10;99.90;;;;;;4862815;29;20497;-82
2023/07/30 12:44:11;;;;;;;4.18;1.70;;;24.10;99.90;;;;;;4858484;29;20113;-82
2023/07/30 12:46:37;;;;;;;3.00;1.45;;;24.20;99.90;;;;;;4863302;29;20146;-82
2023/07/30 12:49:04;;;;;;;1.85;1.23;;;24.20;99.90;;;;;;4884651;29;20068;-82
2023/07/30 12:51:32;;;;;;;2.40;1.00;;;24.20;99.90;;;;;;4876459;29;20109;-81